ADDS METAR Data INFO
IDs: Format: Raw Decoded Include TAF

Data at: 0856 UTC 16 Jul 2018

METAR for:PACD (Cold Bay Arpt, AK, US)
Text:PACD 160853Z AUTO 27012KT 9SM FEW007 BKN011 OVC021 08/08 A3016 RMK AO2 RAB18E29 CIG 008V012 SLP215 P0000 60000 T00830078 401390078 51010 TSNO $
Temperature: 8.3°C ( 47°F)
Dewpoint: 7.8°C ( 46°F) [RH = 97%]
Pressure (altimeter):30.16 inches Hg (1021.4 mb) [Sea level pressure: 1021.5 mb]
Winds:from the W (270 degrees) at 14 MPH (12 knots; 6.2 m/s)
Visibility: 9 sm ( 14 km)
Ceiling:1100 feet AGL
Clouds: few clouds at 700 feet AGL, broken clouds at 1100 feet AGL, overcast cloud deck at 2100 feet AGL
QC Flag:automated observation with no human augmentation; SOME DATA ABOVE MAY BE INACCURATE!!!"$" is an indication the sensor requires maintenance.
Text:PACD 160846Z AUTO 28013KT 10SM BKN007 BKN011 OVC021 08/08 A3017 RMK AO2 RAB18E29 CIG 005V010 P0000 T00830083 TSNO $
Temperature: 8.3°C ( 47°F)
Dewpoint: 8.3°C ( 47°F) [RH = 100%]
Pressure (altimeter):30.17 inches Hg (1021.8 mb)
Winds:from the W (280 degrees) at 15 MPH (13 knots; 6.7 m/s)
Visibility:10 or more sm (16+ km)
Ceiling:700 feet AGL
Clouds: broken clouds at 700 feet AGL, broken clouds at 1100 feet AGL, overcast cloud deck at 2100 feet AGL
QC Flag:automated observation with no human augmentation; SOME DATA ABOVE MAY BE INACCURATE!!!"$" is an indication the sensor requires maintenance.
Text:PACD 160826Z AUTO 28011KT 9SM -RA FEW007 BKN013 OVC021 09/08 A3016 RMK AO2 RAB18 P0000 T00890083 TSNO $
Temperature: 8.9°C ( 48°F)
Dewpoint: 8.3°C ( 47°F) [RH = 96%]
Pressure (altimeter):30.16 inches Hg (1021.4 mb)
Winds:from the W (280 degrees) at 13 MPH (11 knots; 5.7 m/s)
Visibility: 9 sm ( 14 km)
Ceiling:1300 feet AGL
Clouds: few clouds at 700 feet AGL, broken clouds at 1300 feet AGL, overcast cloud deck at 2100 feet AGL
Weather:-RA (light rain)
QC Flag:automated observation with no human augmentation; SOME DATA ABOVE MAY BE INACCURATE!!!"$" is an indication the sensor requires maintenance.
Text:PACD 160753Z AUTO 29012KT 10SM OVC012 09/07 A3016 RMK AO2 SLP214 T00890072 TSNO $
Temperature: 8.9°C ( 48°F)
Dewpoint: 7.2°C ( 45°F) [RH = 89%]
Pressure (altimeter):30.16 inches Hg (1021.4 mb) [Sea level pressure: 1021.4 mb]
Winds:from the WNW (290 degrees) at 14 MPH (12 knots; 6.2 m/s)
Visibility:10 or more sm (16+ km)
Ceiling:1200 feet AGL
Clouds: overcast cloud deck at 1200 feet AGL
QC Flag:automated observation with no human augmentation; SOME DATA ABOVE MAY BE INACCURATE!!!"$" is an indication the sensor requires maintenance.
Text:PACD 160712Z AUTO 28010KT 10SM BKN013 OVC020 09/07 A3015 RMK AO2 T00940072 TSNO $
Temperature: 9.4°C ( 49°F)
Dewpoint: 7.2°C ( 45°F) [RH = 86%]
Pressure (altimeter):30.15 inches Hg (1021.1 mb)
Winds:from the W (280 degrees) at 12 MPH (10 knots; 5.1 m/s)
Visibility:10 or more sm (16+ km)
Ceiling:1300 feet AGL
Clouds: broken clouds at 1300 feet AGL, overcast cloud deck at 2000 feet AGL
QC Flag:automated observation with no human augmentation; SOME DATA ABOVE MAY BE INACCURATE!!!"$" is an indication the sensor requires maintenance.
Text:PACD 160653Z AUTO 29009KT 10SM OVC020 09/07 A3014 RMK AO2 SLP208 T00940067 TSNO $
Temperature: 9.4°C ( 49°F)
Dewpoint: 6.7°C ( 44°F) [RH = 83%]
Pressure (altimeter):30.14 inches Hg (1020.7 mb) [Sea level pressure: 1020.8 mb]
Winds:from the WNW (290 degrees) at 10 MPH (9 knots; 4.6 m/s)
Visibility:10 or more sm (16+ km)
Ceiling:2000 feet AGL
Clouds: overcast cloud deck at 2000 feet AGL
QC Flag:automated observation with no human augmentation; SOME DATA ABOVE MAY BE INACCURATE!!!"$" is an indication the sensor requires maintenance.
Text:PACD 160553Z AUTO 30008KT 10SM SCT016 BKN023 11/07 A3013 RMK AO2 SLP204 T01060072 10133 20106 53007 TSNO $
Temperature: 10.6°C ( 51°F)
Dewpoint: 7.2°C ( 45°F) [RH = 79%]
Pressure (altimeter):30.13 inches Hg (1020.4 mb) [Sea level pressure: 1020.4 mb]
Winds:from the WNW (300 degrees) at 9 MPH (8 knots; 4.1 m/s)
Visibility:10 or more sm (16+ km)
Ceiling:2300 feet AGL
Clouds: scattered clouds at 1600 feet AGL, broken clouds at 2300 feet AGL
QC Flag:automated observation with no human augmentation; SOME DATA ABOVE MAY BE INACCURATE!!!"$" is an indication the sensor requires maintenance.
Text:PACD 160453Z AUTO 32006KT 10SM SCT017 11/07 A3012 RMK AO2 SLP201 T01110072 TSNO $
Temperature: 11.1°C ( 52°F)
Dewpoint: 7.2°C ( 45°F) [RH = 77%]
Pressure (altimeter):30.12 inches Hg (1020.1 mb) [Sea level pressure: 1020.1 mb]
Winds:from the NW (320 degrees) at 7 MPH (6 knots; 3.1 m/s)
Visibility:10 or more sm (16+ km)
Ceiling:at least 12,000 feet AGL
Clouds: scattered clouds at 1700 feet AGL
QC Flag:automated observation with no human augmentation; SOME DATA ABOVE MAY BE INACCURATE!!!"$" is an indication the sensor requires maintenance.
Text:PACD 160353Z AUTO 33007KT 10SM FEW018 12/07 A3011 RMK AO2 SLP197 T01220072 TSNO $
Temperature: 12.2°C ( 54°F)
Dewpoint: 7.2°C ( 45°F) [RH = 71%]
Pressure (altimeter):30.11 inches Hg (1019.7 mb) [Sea level pressure: 1019.7 mb]
Winds:from the NNW (330 degrees) at 8 MPH (7 knots; 3.6 m/s)
Visibility:10 or more sm (16+ km)
Ceiling:at least 12,000 feet AGL
Clouds: few clouds at 1800 feet AGL
QC Flag:automated observation with no human augmentation; SOME DATA ABOVE MAY BE INACCURATE!!!"$" is an indication the sensor requires maintenance.

TAF for:PACD (Cold Bay Arpt, AK, US) issued at 0538 UTC 16 Jul 2018
Text:PACD 160538Z 1606/1706 32010KT P6SM BKN025
Forecast period:0600 to 0900 UTC 16 July 2018
Forecast type:FROM: standard forecast or significant change
Winds:from the NW (320 degrees) at 12 MPH (10 knots; 5.1 m/s)
Visibility:6 or more sm (10+ km)
Ceiling:2500 feet AGL
Clouds: broken clouds at 2500 feet AGL
Text:TEMPO 1606/1609 SCT025
Forecast period:0600 to 0900 UTC 16 July 2018
Forecast type:TEMPORARY: The following changes expected for less than half the time period
Ceiling:at least 12,000 feet AGL
Clouds: scattered clouds at 2500 feet AGL
Text:FM160900 28010KT P6SM OVC008
Forecast period:0900 UTC 16 July 2018 to 0600 UTC 17 July 2018
Forecast type:FROM: standard forecast or significant change
Winds:from the W (280 degrees) at 12 MPH (10 knots; 5.1 m/s)
Visibility:6 or more sm (10+ km)
Ceiling:800 feet AGL
Clouds: overcast cloud deck at 800 feet AGL